createdAt,value
2018-12-30T00:00:41.089Z,17.27
2018-12-30T00:03:10.247Z,20.43
2018-12-30T00:05:39.305Z,16.03
2018-12-30T00:08:08.024Z,16.20
2018-12-30T00:10:36.705Z,22.47
2018-12-30T00:13:05.419Z,19.67
2018-12-30T00:15:34.494Z,21.27
2018-12-30T00:18:03.646Z,29.50
2018-12-30T00:20:32.417Z,23.77
2018-12-30T00:23:01.135Z,21.10
2018-12-30T00:25:29.913Z,23.67
2018-12-30T00:27:58.690Z,15.13
2018-12-30T00:30:27.489Z,16.03
2018-12-30T00:32:56.281Z,20.10
2018-12-30T00:35:24.997Z,15.23
2018-12-30T00:37:53.692Z,24.30
2018-12-30T00:40:22.703Z,19.43
2018-12-30T00:42:51.394Z,24.47
2018-12-30T00:45:20.196Z,18.20
2018-12-30T00:47:49.000Z,25.53
2018-12-30T00:50:17.793Z,19.83
2018-12-30T00:52:46.569Z,20.10
2018-12-30T00:55:15.294Z,15.53
2018-12-30T00:57:44.064Z,18.00
2018-12-30T01:00:12.950Z,25.33
2018-12-30T01:02:41.727Z,21.40
2018-12-30T01:05:10.546Z,24.17
2018-12-30T01:07:39.610Z,24.80
2018-12-30T01:10:08.397Z,20.97
2018-12-30T01:12:37.250Z,23.53
2018-12-30T01:15:06.093Z,19.43
2018-12-30T01:17:34.816Z,22.10
2018-12-30T01:20:03.937Z,24.23
2018-12-30T01:22:32.905Z,16.53
2018-12-30T01:25:01.663Z,18.13
2018-12-30T01:27:30.459Z,23.53
2018-12-30T01:29:59.222Z,20.43
2018-12-30T01:32:28.021Z,25.53
2018-12-30T01:34:57.107Z,16.00
2018-12-30T01:37:25.821Z,24.97
2018-12-30T01:39:54.586Z,21.17
2018-12-30T01:42:23.384Z,25.00
2018-12-30T01:44:52.149Z,23.33
2018-12-30T01:47:20.945Z,22.07
2018-12-30T01:49:49.725Z,22.20
2018-12-30T01:52:18.538Z,21.30
2018-12-30T01:54:47.289Z,22.53
2018-12-30T01:57:16.008Z,29.20
2018-12-30T01:59:44.770Z,17.47
2018-12-30T02:02:13.675Z,23.83
2018-12-30T02:04:42.434Z,17.70
2018-12-30T02:07:11.129Z,20.77
2018-12-30T02:09:39.844Z,20.27
2018-12-30T02:12:08.549Z,24.17
2018-12-30T02:14:37.424Z,20.80
2018-12-30T02:17:06.281Z,21.00
2018-12-30T02:19:34.989Z,14.47
2018-12-30T02:22:04.028Z,23.93
2018-12-30T02:24:32.821Z,19.10
2018-12-30T02:27:01.877Z,21.10
2018-12-30T02:29:30.609Z,22.30
2018-12-30T02:31:59.305Z,22.90
2018-12-30T02:34:28.082Z,21.37
2018-12-30T02:36:56.762Z,16.27
2018-12-30T02:39:25.765Z,20.53
2018-12-30T02:41:54.456Z,26.80
2018-12-30T02:44:23.159Z,24.30
2018-12-30T02:46:51.841Z,15.13
2018-12-30T02:49:20.544Z,20.70
2018-12-30T02:51:50.399Z,19.60
2018-12-30T02:54:21.828Z,19.73
2018-12-30T02:56:50.581Z,18.90
2018-12-30T02:59:19.303Z,16.87
2018-12-30T03:01:48.004Z,22.90
2018-12-30T03:04:16.963Z,15.53
2018-12-30T03:06:45.674Z,19.87
2018-12-30T03:09:14.354Z,15.50
2018-12-30T03:11:43.066Z,23.93
2018-12-30T03:14:11.745Z,20.67
2018-12-30T03:16:40.462Z,17.17
2018-12-30T03:19:09.167Z,15.10
2018-12-30T03:21:37.951Z,16.13
2018-12-30T03:24:06.633Z,18.90
2018-12-30T03:26:35.346Z,19.40
2018-12-30T03:29:04.042Z,19.47
2018-12-30T03:31:32.763Z,21.07
2018-12-30T03:34:01.472Z,16.80
2018-12-30T03:36:30.190Z,18.93
2018-12-30T03:38:58.885Z,19.37
2018-12-30T03:41:27.616Z,28.47
2018-12-30T03:43:56.301Z,17.17
2018-12-30T03:46:25.017Z,20.67
2018-12-30T03:48:53.694Z,21.27
2018-12-30T03:51:22.381Z,17.80
2018-12-30T03:53:51.086Z,21.80
2018-12-30T03:56:19.772Z,16.70
2018-12-30T03:58:48.483Z,23.93
2018-12-30T04:01:17.169Z,20.30
2018-12-30T04:03:45.876Z,19.20
2018-12-30T04:06:14.573Z,22.20
2018-12-30T04:08:43.277Z,17.80
2018-12-30T04:11:11.965Z,20.10
2018-12-30T04:13:40.754Z,22.83
2018-12-30T04:16:09.439Z,16.93
2018-12-30T04:18:38.161Z,21.97
2018-12-30T04:21:06.846Z,21.40
2018-12-30T04:23:35.529Z,17.03
2018-12-30T04:26:04.305Z,25.20
2018-12-30T04:28:32.990Z,17.07
2018-12-30T04:31:01.702Z,26.47
2018-12-30T04:33:30.411Z,22.60
2018-12-30T04:35:59.099Z,21.23
2018-12-30T04:38:27.789Z,22.33
2018-12-30T04:40:56.570Z,22.40
2018-12-30T04:43:25.277Z,16.17
2018-12-30T04:45:53.976Z,15.60
2018-12-30T04:48:22.665Z,17.43
2018-12-30T04:50:51.373Z,28.00
2018-12-30T04:53:20.099Z,20.57
2018-12-30T04:55:48.802Z,18.30
2018-12-30T04:58:17.490Z,18.03
2018-12-30T05:00:46.198Z,23.17
2018-12-30T05:03:14.877Z,17.67
2018-12-30T05:05:43.589Z,21.67
2018-12-30T05:08:12.284Z,17.90
2018-12-30T05:10:40.969Z,12.97
2018-12-30T05:13:09.681Z,19.03
2018-12-30T05:15:38.398Z,18.87
2018-12-30T05:18:07.098Z,25.13
2018-12-30T05:20:35.789Z,20.23
2018-12-30T05:23:04.503Z,19.00
2018-12-30T05:25:33.199Z,23.17
2018-12-30T05:28:01.919Z,20.73
2018-12-30T05:30:30.673Z,17.57
2018-12-30T05:32:59.376Z,15.77
2018-12-30T05:35:28.056Z,20.60
2018-12-30T05:37:56.773Z,15.83
2018-12-30T05:40:25.530Z,18.03
2018-12-30T05:42:54.238Z,19.83
2018-12-30T05:45:22.931Z,17.80
2018-12-30T05:47:51.661Z,20.27
2018-12-30T05:50:20.354Z,20.80
2018-12-30T05:52:49.075Z,19.63
2018-12-30T05:55:17.784Z,20.90
2018-12-30T05:57:46.481Z,18.20
2018-12-30T06:00:15.195Z,19.33
2018-12-30T06:02:43.889Z,16.00
2018-12-30T06:05:12.589Z,16.37
2018-12-30T06:07:41.294Z,12.07
2018-12-30T06:10:10.048Z,14.47
2018-12-30T06:12:38.808Z,23.30
2018-12-30T06:15:07.580Z,14.77
2018-12-30T06:17:36.322Z,17.77
2018-12-30T06:20:05.304Z,18.87
2018-12-30T06:22:33.994Z,22.60
2018-12-30T06:25:02.708Z,20.73
2018-12-30T06:27:31.394Z,17.93
2018-12-30T06:30:00.165Z,16.70
2018-12-30T06:32:28.867Z,17.13
2018-12-30T06:34:57.589Z,25.30
2018-12-30T06:37:26.274Z,17.20
2018-12-30T06:39:55.006Z,19.10
2018-12-30T06:42:23.701Z,25.10
2018-12-30T06:44:52.378Z,16.70
2018-12-30T06:47:21.093Z,17.23
2018-12-30T06:49:49.786Z,15.80
2018-12-30T06:52:18.497Z,20.63
2018-12-30T06:54:47.188Z,23.13
2018-12-30T06:57:15.906Z,18.17
2018-12-30T06:59:44.615Z,21.53
2018-12-30T07:02:13.336Z,23.03
2018-12-30T07:04:42.053Z,18.20
2018-12-30T07:07:10.837Z,17.50
2018-12-30T07:09:39.538Z,17.63
2018-12-30T07:12:08.414Z,21.57
2018-12-30T07:14:37.101Z,16.27
2018-12-30T07:17:05.819Z,17.80
2018-12-30T07:19:34.500Z,20.33
2018-12-30T07:22:03.239Z,22.53
2018-12-30T07:24:31.922Z,18.30
2018-12-30T07:27:00.606Z,21.43
2018-12-30T07:29:29.319Z,18.80
2018-12-30T07:31:57.998Z,19.73
2018-12-30T07:34:26.704Z,22.27
2018-12-30T07:36:55.417Z,20.77
2018-12-30T07:39:24.138Z,23.77
2018-12-30T07:41:52.824Z,14.80
2018-12-30T07:44:21.602Z,13.33
2018-12-30T07:46:50.297Z,20.43
2018-12-30T07:49:19.008Z,12.90
2018-12-30T07:51:47.704Z,14.53
2018-12-30T07:54:16.410Z,17.77
2018-12-30T07:56:45.090Z,15.27
2018-12-30T07:59:13.838Z,21.67
2018-12-30T08:01:42.530Z,19.30
2018-12-30T08:04:11.258Z,14.77
2018-12-30T08:06:39.941Z,19.83
2018-12-30T08:09:08.656Z,13.63
2018-12-30T08:11:37.361Z,12.53
2018-12-30T08:14:06.090Z,12.83
2018-12-30T08:16:34.782Z,13.87
2018-12-30T08:19:03.509Z,14.83
2018-12-30T08:21:32.210Z,13.67
2018-12-30T08:24:00.970Z,15.53
2018-12-30T08:26:29.702Z,15.23
2018-12-30T08:28:58.387Z,10.37
2018-12-30T08:31:27.169Z,18.00
2018-12-30T08:33:55.864Z,10.63
2018-12-30T08:36:24.596Z,14.53
2018-12-30T08:38:53.343Z,17.53
2018-12-30T08:41:22.061Z,16.63
2018-12-30T08:43:50.754Z,18.90
2018-12-30T08:46:19.514Z,14.50
2018-12-30T08:48:49.709Z,12.47
2018-12-30T08:51:18.629Z,14.07
2018-12-30T08:53:47.319Z,19.83
2018-12-30T08:56:16.056Z,11.63
2018-12-30T08:58:44.736Z,11.20
2018-12-30T09:01:13.545Z,19.03
2018-12-30T09:03:42.231Z,11.93
2018-12-30T09:06:10.925Z,13.33
2018-12-30T09:08:39.669Z,12.90
2018-12-30T09:11:08.468Z,10.30
2018-12-30T09:13:37.174Z,17.10
2018-12-30T09:16:05.864Z,12.10
2018-12-30T09:18:34.599Z,10.23
2018-12-30T09:21:03.305Z,10.43
2018-12-30T09:23:37.292Z,18.00
2018-12-30T09:26:02.457Z,15.27
2018-12-30T09:28:31.236Z,10.80
2018-12-30T09:30:59.952Z,13.43
2018-12-30T09:33:28.749Z,12.93
2018-12-30T09:35:57.439Z,14.20
2018-12-30T09:38:26.145Z,12.03
2018-12-30T09:40:54.850Z,10.03
2018-12-30T09:43:23.622Z,20.53
2018-12-30T09:45:52.328Z,12.80
2018-12-30T09:48:21.018Z,13.63
2018-12-30T09:50:49.731Z,10.63
2018-12-30T09:53:18.465Z,8.67
2018-12-30T09:55:47.218Z,17.53
2018-12-30T09:58:15.922Z,14.87
2018-12-30T10:00:44.633Z,13.03
2018-12-30T10:03:13.361Z,12.03
2018-12-30T10:05:42.148Z,11.80
2018-12-30T10:08:10.835Z,12.37
2018-12-30T10:10:39.570Z,11.27
2018-12-30T10:13:08.290Z,12.57
2018-12-30T10:15:37.026Z,12.87
2018-12-30T10:18:05.713Z,14.43
2018-12-30T10:20:34.497Z,14.17
2018-12-30T10:23:03.256Z,14.00
2018-12-30T10:25:31.949Z,12.13
2018-12-30T10:28:00.666Z,17.30
2018-12-30T10:30:29.385Z,13.93
2018-12-30T10:32:58.106Z,14.00
2018-12-30T10:35:26.822Z,16.47
2018-12-30T10:37:55.608Z,12.10
2018-12-30T10:40:24.329Z,13.80
2018-12-30T10:42:53.056Z,13.03
2018-12-30T10:45:21.772Z,12.27
2018-12-30T10:47:53.361Z,13.83
2018-12-30T10:50:22.130Z,10.60
2018-12-30T10:52:50.854Z,18.93
2018-12-30T10:55:19.558Z,15.37
2018-12-30T10:57:48.330Z,10.80
2018-12-30T11:00:17.033Z,9.17
2018-12-30T11:02:45.769Z,11.97
2018-12-30T11:05:14.454Z,12.60
2018-12-30T11:07:43.169Z,11.73
2018-12-30T11:10:11.981Z,11.43
2018-12-30T11:12:40.757Z,13.73
2018-12-30T11:15:09.585Z,13.20
2018-12-30T11:17:38.311Z,8.27
2018-12-30T11:20:07.143Z,17.93
2018-12-30T11:22:35.861Z,12.60
2018-12-30T11:25:05.153Z,10.97
2018-12-30T11:27:35.695Z,21.97
2018-12-30T11:30:06.771Z,11.17
2018-12-30T11:32:35.526Z,11.13
2018-12-30T11:35:04.869Z,12.93
2018-12-30T11:37:33.601Z,14.80
2018-12-30T11:40:02.467Z,17.57
2018-12-30T11:42:30.767Z,11.80
2018-12-30T11:44:59.138Z,12.20
2018-12-30T11:47:27.407Z,12.67
2018-12-30T11:49:55.768Z,18.17
2018-12-30T11:52:24.041Z,14.23
2018-12-30T11:54:52.310Z,13.60
2018-12-30T11:57:20.586Z,12.50
2018-12-30T11:59:48.910Z,12.13
2018-12-30T12:02:23.807Z,10.13
2018-12-30T12:04:47.149Z,11.70
2018-12-30T12:07:15.442Z,12.17
2018-12-30T12:09:43.746Z,13.00
2018-12-30T12:12:12.090Z,14.13
2018-12-30T12:14:40.364Z,17.00
2018-12-30T12:17:08.622Z,15.33
2018-12-30T12:19:36.914Z,12.20
2018-12-30T12:22:05.418Z,15.90
2018-12-30T12:24:34.139Z,18.13
2018-12-30T12:27:02.870Z,13.93
2018-12-30T12:29:31.650Z,15.47
2018-12-30T12:32:00.416Z,15.57
2018-12-30T12:34:29.109Z,8.23
2018-12-30T12:36:57.824Z,12.80
2018-12-30T12:39:26.525Z,11.60
2018-12-30T12:41:55.275Z,16.30
2018-12-30T12:44:23.972Z,11.20
2018-12-30T12:46:52.702Z,13.50
2018-12-30T12:49:21.409Z,14.80
2018-12-30T12:51:50.134Z,12.70
2018-12-30T12:54:18.910Z,15.50
2018-12-30T12:56:47.626Z,15.43
2018-12-30T12:59:16.345Z,17.47
2018-12-30T13:01:45.065Z,14.43
2018-12-30T13:04:13.794Z,20.20
2018-12-30T13:06:42.583Z,13.00
2018-12-30T13:09:11.289Z,16.23
2018-12-30T13:11:40.020Z,20.53
2018-12-30T13:14:08.725Z,16.20
2018-12-30T13:16:37.520Z,11.17
2018-12-30T13:19:06.308Z,18.90
2018-12-30T13:21:35.010Z,16.07
2018-12-30T13:24:03.734Z,15.00
2018-12-30T13:26:32.477Z,26.20
2018-12-30T13:29:01.349Z,11.20
2018-12-30T13:31:30.431Z,14.00
2018-12-30T13:33:59.015Z,19.20
2018-12-30T13:36:27.805Z,12.80
2018-12-30T13:38:56.589Z,15.77
2018-12-30T13:41:25.297Z,16.20
2018-12-30T13:43:53.879Z,16.93
2018-12-30T13:46:22.444Z,15.53
2018-12-30T13:48:51.165Z,19.63
2018-12-30T13:51:19.870Z,17.00
2018-12-30T13:53:48.593Z,15.50
2018-12-30T13:56:19.737Z,23.30
2018-12-30T13:58:48.590Z,17.07
2018-12-30T14:01:17.624Z,17.20
2018-12-30T14:03:46.351Z,17.27
2018-12-30T14:06:15.114Z,18.30
2018-12-30T14:08:43.850Z,17.67
2018-12-30T14:11:12.551Z,15.83
2018-12-30T14:13:41.240Z,13.57
2018-12-30T14:16:10.017Z,19.87
2018-12-30T14:18:38.736Z,20.83
2018-12-30T14:21:07.511Z,19.20
2018-12-30T14:23:36.201Z,19.83
2018-12-30T14:26:05.002Z,13.73
2018-12-30T14:28:33.750Z,21.43
2018-12-30T14:31:02.484Z,13.20
2018-12-30T14:33:31.161Z,13.73
2018-12-30T14:35:59.875Z,13.90
2018-12-30T14:38:28.593Z,17.87
2018-12-30T14:40:57.308Z,18.00
2018-12-30T14:43:26.108Z,16.30
2018-12-30T14:45:54.904Z,15.37
2018-12-30T14:48:23.612Z,16.30
2018-12-30T14:50:52.302Z,13.97
2018-12-30T14:53:21.127Z,14.77
2018-12-30T14:55:49.814Z,19.07
2018-12-30T14:58:18.618Z,20.30
2018-12-30T15:00:48.466Z,14.13
2018-12-30T15:03:17.259Z,16.23
2018-12-30T15:05:47.209Z,13.90
2018-12-30T15:08:15.954Z,15.17
2018-12-30T15:10:44.731Z,15.40
2018-12-30T15:13:13.457Z,15.53
2018-12-30T15:15:42.148Z,16.97
2018-12-30T15:18:10.870Z,18.17
2018-12-30T15:20:39.587Z,14.77
2018-12-30T15:23:08.326Z,16.83
2018-12-30T15:25:37.001Z,17.63
2018-12-30T15:28:05.741Z,15.07
2018-12-30T15:30:34.430Z,17.37
2018-12-30T15:33:03.264Z,16.43
2018-12-30T15:35:31.967Z,15.30
2018-12-30T15:38:00.781Z,18.73
2018-12-30T15:40:29.478Z,21.30
2018-12-30T15:42:59.615Z,17.53
2018-12-30T15:45:28.374Z,16.17
2018-12-30T15:47:57.102Z,14.70
2018-12-30T15:50:25.813Z,20.10
2018-12-30T15:52:54.609Z,15.90
2018-12-30T15:55:23.300Z,16.00
2018-12-30T15:57:51.989Z,21.27
2018-12-30T16:00:20.793Z,23.93
2018-12-30T16:02:49.565Z,19.77
2018-12-30T16:05:18.298Z,25.50
2018-12-30T16:07:46.996Z,22.10
2018-12-30T16:10:15.723Z,27.87
2018-12-30T16:12:44.440Z,20.93
2018-12-30T16:15:13.240Z,27.87
2018-12-30T16:17:41.938Z,27.63
2018-12-30T16:20:10.659Z,32.73
2018-12-30T16:22:42.209Z,28.53
2018-12-30T16:25:10.957Z,33.20
2018-12-30T16:27:39.794Z,27.90
2018-12-30T16:30:10.047Z,30.67
2018-12-30T16:32:38.784Z,32.07
2018-12-30T16:35:07.511Z,31.00
2018-12-30T16:37:36.280Z,30.10
2018-12-30T16:40:05.736Z,34.77
2018-12-30T16:42:34.557Z,38.53
2018-12-30T16:45:04.077Z,40.50
2018-12-30T16:47:32.882Z,42.67
2018-12-30T16:50:01.589Z,37.93
2018-12-30T16:52:30.446Z,45.93
2018-12-30T16:54:59.214Z,44.77
2018-12-30T16:57:27.944Z,38.83
2018-12-30T16:59:56.644Z,38.97
2018-12-30T17:02:25.443Z,41.53
2018-12-30T17:04:54.142Z,39.90
2018-12-30T17:07:22.873Z,37.67
2018-12-30T17:09:51.585Z,43.27
2018-12-30T17:12:20.306Z,43.13
2018-12-30T17:14:49.043Z,40.77
2018-12-30T17:17:17.963Z,39.27
2018-12-30T17:19:46.666Z,49.43
2018-12-30T17:22:15.437Z,42.27
2018-12-30T17:24:44.258Z,47.87
2018-12-30T17:27:12.956Z,38.70
2018-12-30T17:29:41.682Z,43.63
2018-12-30T17:32:10.392Z,48.30
2018-12-30T17:34:39.154Z,50.70
2018-12-30T17:37:10.199Z,42.47
2018-12-30T17:39:41.642Z,46.80
2018-12-30T17:42:10.378Z,50.10
2018-12-30T17:44:39.204Z,44.90
2018-12-30T17:47:07.906Z,41.73
2018-12-30T17:49:36.709Z,43.97
2018-12-30T17:52:05.422Z,43.93
2018-12-30T17:54:34.167Z,44.87
2018-12-30T17:57:02.887Z,41.77
2018-12-30T17:59:31.628Z,44.53
2018-12-30T18:02:00.431Z,37.53
2018-12-30T18:04:30.740Z,47.40
2018-12-30T18:06:59.461Z,42.00
2018-12-30T18:09:28.188Z,39.73
2018-12-30T18:11:56.903Z,38.53
2018-12-30T18:14:25.594Z,41.03
2018-12-30T18:16:54.322Z,36.37
2018-12-30T18:19:23.122Z,39.03
2018-12-30T18:21:51.845Z,48.33
2018-12-30T18:24:20.557Z,38.23
2018-12-30T18:26:49.363Z,38.33
2018-12-30T18:29:18.073Z,35.80
2018-12-30T18:31:46.878Z,44.43
2018-12-30T18:34:15.602Z,38.33
2018-12-30T18:36:44.350Z,35.47
2018-12-30T18:39:13.070Z,37.50
2018-12-30T18:41:41.873Z,34.17
2018-12-30T18:44:10.586Z,40.00
2018-12-30T18:46:39.322Z,33.63
2018-12-30T18:49:08.041Z,34.43
2018-12-30T18:51:36.726Z,39.17
2018-12-30T18:54:05.476Z,34.83
2018-12-30T18:56:34.238Z,37.90
2018-12-30T18:59:02.964Z,41.90
2018-12-30T19:01:31.660Z,37.80
2018-12-30T19:04:00.397Z,38.07
2018-12-30T19:06:29.170Z,42.23
2018-12-30T19:08:57.889Z,42.73
2018-12-30T19:11:26.606Z,42.70
2018-12-30T19:13:55.427Z,40.97
2018-12-30T19:16:24.125Z,40.97
2018-12-30T19:18:52.863Z,39.73
2018-12-30T19:21:21.546Z,47.27
2018-12-30T19:23:50.331Z,47.23
2018-12-30T19:26:19.067Z,40.80
2018-12-30T19:28:47.832Z,46.30
2018-12-30T19:31:16.572Z,42.03
2018-12-30T19:33:45.283Z,44.97
2018-12-30T19:36:14.013Z,46.90
2018-12-30T19:38:42.718Z,46.17
2018-12-30T19:41:11.536Z,44.57
2018-12-30T19:43:40.242Z,45.20
2018-12-30T19:46:08.968Z,45.23
2018-12-30T19:48:37.754Z,50.67
2018-12-30T19:51:06.495Z,50.80
2018-12-30T19:53:35.184Z,57.90
2018-12-30T19:56:04.022Z,54.23
2018-12-30T19:58:32.748Z,50.17
2018-12-30T20:01:01.545Z,61.47
2018-12-30T20:03:30.346Z,74.50
2018-12-30T20:05:59.070Z,61.27
2018-12-30T20:08:27.777Z,64.43
2018-12-30T20:10:56.594Z,70.60
2018-12-30T20:13:25.315Z,73.77
2018-12-30T20:15:54.047Z,66.47
2018-12-30T20:18:22.749Z,68.17
2018-12-30T20:20:51.503Z,65.37
2018-12-30T20:23:20.241Z,68.87
2018-12-30T20:25:49.073Z,61.93
2018-12-30T20:28:17.799Z,62.27
2018-12-30T20:30:49.954Z,66.60
2018-12-30T20:33:18.687Z,60.77
2018-12-30T20:35:47.439Z,56.57
2018-12-30T20:38:16.176Z,61.27
2018-12-30T20:40:44.888Z,65.60
2018-12-30T20:43:13.627Z,71.07
2018-12-30T20:45:42.358Z,66.33
2018-12-30T20:48:11.132Z,67.70
2018-12-30T20:50:39.833Z,88.63
2018-12-30T20:53:09.414Z,72.90
2018-12-30T20:55:38.120Z,65.83
2018-12-30T20:58:06.938Z,62.07
2018-12-30T21:00:35.719Z,63.03
2018-12-30T21:03:04.526Z,65.63
2018-12-30T21:05:33.242Z,74.20
2018-12-30T21:08:01.965Z,64.67
2018-12-30T21:10:30.679Z,69.00
2018-12-30T21:12:59.439Z,61.07
2018-12-30T21:15:28.269Z,70.20
2018-12-30T21:17:57.063Z,79.47
2018-12-30T21:20:25.902Z,66.43
2018-12-30T21:22:54.666Z,69.17
2018-12-30T21:25:23.414Z,80.40
2018-12-30T21:27:53.031Z,71.40
2018-12-30T21:30:21.765Z,84.40
2018-12-30T21:32:50.576Z,74.73
2018-12-30T21:35:19.350Z,81.73
2018-12-30T21:37:48.185Z,84.13
2018-12-30T21:40:16.906Z,82.17
2018-12-30T21:42:45.598Z,82.63
2018-12-30T21:45:14.599Z,77.13
2018-12-30T21:47:43.366Z,72.53
2018-12-30T21:50:12.109Z,60.53
2018-12-30T21:52:40.838Z,59.50
2018-12-30T21:55:09.647Z,63.50
2018-12-30T21:57:38.329Z,82.67
2018-12-30T22:00:08.419Z,66.47
2018-12-30T22:02:37.189Z,64.33
2018-12-30T22:05:06.021Z,61.30
2018-12-30T22:07:34.735Z,52.17
2018-12-30T22:10:05.209Z,59.03
2018-12-30T22:12:33.920Z,57.47
2018-12-30T22:15:03.178Z,71.77
2018-12-30T22:17:32.129Z,62.80
2018-12-30T22:20:00.912Z,54.07
2018-12-30T22:22:29.691Z,55.70
2018-12-30T22:24:58.521Z,60.60
2018-12-30T22:27:27.262Z,66.20
2018-12-30T22:29:55.994Z,70.07
2018-12-30T22:32:24.762Z,56.43
2018-12-30T22:34:53.464Z,54.77
2018-12-30T22:37:22.202Z,49.77
2018-12-30T22:39:50.973Z,56.13
2018-12-30T22:42:19.786Z,42.37
2018-12-30T22:44:48.466Z,43.70
2018-12-30T22:47:17.193Z,46.17
2018-12-30T22:49:45.901Z,56.70
2018-12-30T22:52:16.178Z,55.33
2018-12-30T22:54:44.951Z,49.73
2018-12-30T22:57:13.681Z,44.60
2018-12-30T22:59:42.366Z,47.50
2018-12-30T23:02:11.095Z,42.03
2018-12-30T23:04:39.818Z,49.80
2018-12-30T23:07:08.505Z,48.50
2018-12-30T23:09:37.243Z,47.37
2018-12-30T23:12:06.089Z,49.60
2018-12-30T23:14:34.861Z,55.60
2018-12-30T23:17:03.626Z,46.67
2018-12-30T23:19:32.409Z,51.43
2018-12-30T23:22:01.125Z,44.57
2018-12-30T23:24:29.850Z,42.50
2018-12-30T23:26:58.546Z,52.80
2018-12-30T23:29:27.266Z,51.63
2018-12-30T23:31:56.065Z,51.23
2018-12-30T23:34:24.772Z,70.27
2018-12-30T23:36:53.511Z,53.90
2018-12-30T23:39:22.267Z,83.40
2018-12-30T23:41:50.967Z,53.90
2018-12-30T23:44:19.697Z,53.90
2018-12-30T23:46:48.403Z,61.57
2018-12-30T23:49:17.117Z,52.10
2018-12-30T23:51:45.809Z,46.30
2018-12-30T23:54:14.523Z,49.90
2018-12-30T23:56:43.226Z,57.17
2018-12-30T23:59:11.971Z,52.40
